Assumption, IL (62510)

9:25 PM CST on February 07, 2016 (GMT -0600)
Brunswick | | Change Station
CLOSE
Current Station
Personal Weather Station
Location: Findlay, IL
Elevation: 646 ft
Nearby Weather Stations

Elev 646 ft 39.50 °N, 88.84 °W | Updated 27 seconds ago

Mostly Cloudy
Mostly Cloudy
39.3 °F
Feels Like 30 °F
N
17.0
Wind Variable Wind from WNW
Gusts 17.0 mph

Today
High -- | Low -- °F
--% Chance of Precip.
Yesterday
High -- | Low -- °F
Precip. -- in
Pressure 29.84 in
Visibility 10.0 miles
Clouds Scattered Clouds 2200 ft
Mostly Cloudy 6000 ft
Overcast 9000 ft
Windchill 30 °F
Dew Point 33 °F
Humidity 78%
Rainfall 0.00 in
Snow Depth Not available.
6:58 AM 5:22 PM
Waning Crescent, 0% visible
METAR KTAZ 080315Z AUTO 32004KT 10SM -RA SCT022 BKN060 OVC090 02/00 A2984 RMK AO2
Pressure 29.84 in
Visibility 10.0 miles
Clouds Scattered Clouds 2200 ft
Mostly Cloudy 6000 ft
Overcast 9000 ft
Windchill 30 °F
Dew Point 33 °F
Humidity 78%
Rainfall 0.00 in
Snow Depth Not available.
6:58 AM 5:22 PM
Waning Crescent, 0% visible
METAR KTAZ 080315Z AUTO 32004KT 10SM -RA SCT022 BKN060 OVC090 02/00 A2984 RMK AO2

10-Day Weather Forecast

Almanac

Astronomy

Feb. 07, 2016 Rise Set
Actual Time
Civil Twilight
Nautical Twilight
Astronomical Twilight
Moon
Length of Visible Light
Length of Day
Tomorrow will be .
, % of the Moon is Illuminated

Today's Extremes

State Highs State Lows

Community

WunderPhotos

Upload Photos

1,891,377 photos uploaded!

WunderBlog® & News

Nearby

Air Quality

  Air Quality AQ Index Pollutant
Not available.

Snow Depth

Station Depth Elevation

Earthquake Activity

City Distance Mag. Time & Date
Minimum magnitude displayed is 2.5.

Coastal Water Temperatures

Place Temperature

Stations

Nearby Weather Stations

Station Location Temp. Windchill Dew Point Humidity Wind Precip. Elev Updated Type
                   

Watches & Warnings

There are currently no watches in effect.